Time;durP1;ratioP1;P1;durP2;ratioP2;P2;SDS_P1;SDS_P2;PMS_P1;PMS_P2;Temp;Humidity;BMP_temperature;BMP_pressure;BME280_temperature;BME280_humidity;BME280_pressure;Samples;Min_cycle;Max_cycle;Signal;HPM_P1;HPM_P2
2023/03/28 00:00:31;;;;;;;;;;;;;;;;;;2053536;29;20162;-88
2023/03/28 00:01:32;;;;;;;3.53;2.90;;;;;;;;;;2058679;28;19910;-88
2023/03/28 00:02:32;;;;;;;;;;;;;;;;;;2064920;28;20500;-88
2023/03/28 00:03:35;;;;;;;4.07;3.00;;;;;;;;;;2063113;28;19910;-88
2023/03/28 00:04:36;;;;;;;3.35;3.00;;;;;;;;;;2063316;28;20113;-87
2023/03/28 00:05:39;;;;;;;3.00;2.70;;;;;;;;;;2063430;28;20580;-88
2023/03/28 00:06:40;;;;;;;3.08;2.60;;;;;;;;;;2063005;28;20027;-88
2023/03/28 00:07:40;;;;;;;3.85;2.70;;;;;;;;;;2063481;28;20027;-88
2023/03/28 00:08:41;;;;;;;;;;;;;;;;;;2054886;28;20050;-89
2023/03/28 00:09:42;;;;;;;3.60;3.23;;;;;;;;;;2054477;28;20352;-89
2023/03/28 00:10:43;;;;;;;3.35;2.88;;;;;;;;;;2062655;28;20022;-89
2023/03/28 00:11:45;;;;;;;2.83;2.50;;;;;;;;;;2054390;28;20453;-88
2023/03/28 00:12:46;;;;;;;4.50;3.00;;;;;;;;;;1706394;28;10144795;-90
2023/03/28 00:13:59;;;;;;;3.78;2.80;;;;;;;;;;2059122;28;20029;-89
2023/03/28 00:14:59;;;;;;;3.03;2.70;;;;;;;;;;2068653;28;20030;-88
2023/03/28 00:16:01;;;;;;;;;;;;;;;;;;2064485;28;20042;-95
2023/03/28 00:17:06;;;;;;;5.10;3.13;;;;;;;;;;2066267;28;19916;-95
2023/03/28 00:18:10;;;;;;;3.55;2.80;;;;;;;;;;2058188;28;20035;-95
2023/03/28 00:19:14;;;;;;;2.92;2.60;;;;;;;;;;2058529;28;20023;-95
2023/03/28 00:20:17;;;;;;;3.25;2.72;;;;;;;;;;2060459;28;20094;-95
2023/03/28 00:21:24;;;;;;;3.92;2.50;;;;;;;;;;2074852;28;20093;-95
2023/03/28 00:22:24;;;;;;;3.33;3.00;;;;;;;;;;2059624;28;20034;-96
2023/03/28 00:23:27;;;;;;;;;;;;;;;;;;2060467;28;20031;-95
2023/03/28 00:24:28;;;;;;;2.90;2.70;;;;;;;;;;2053308;28;20420;-94
2023/03/28 00:25:38;;;;;;;;;;;;;;;;;;2055100;29;20027;-95
2023/03/28 00:26:59;;;;;;;3.35;3.05;;;;;;;;;;2067401;28;19925;-96
2023/03/28 00:28:00;;;;;;;3.17;2.58;;;;;;;;;;2058174;28;20639;-96
2023/03/28 00:29:01;;;;;;;;;;;;;;;;;;2058454;28;20042;-96
2023/03/28 00:30:04;;;;;;;2.88;2.45;;;;;;;;;;2057871;28;19910;-96
2023/03/28 00:31:06;;;;;;;4.53;2.88;;;;;;;;;;2050424;28;20371;-94
2023/03/28 00:32:09;;;;;;;3.50;3.20;;;;;;;;;;2068886;28;20081;-95
2023/03/28 00:33:10;;;;;;;2.97;2.58;;;;;;;;;;2062283;28;20060;-88
2023/03/28 00:34:11;;;;;;;;;;;;;;;;;;2062608;28;20038;-88
2023/03/28 00:35:11;;;;;;;2.83;2.40;;;;;;;;;;2063016;28;19909;-88
2023/03/28 00:36:13;;;;;;;;;;;;;;;;;;2063482;28;20042;-88
2023/03/28 00:37:16;;;;;;;2.75;2.55;;;;;;;;;;2064332;28;19910;-89
2023/03/28 00:38:16;;;;;;;3.65;2.78;;;;;;;;;;2063998;28;20038;-88
2023/03/28 00:39:16;;;;;;;;;;;;;;;;;;2054990;28;20283;-89
2023/03/28 00:40:17;;;;;;;3.97;2.70;;;;;;;;;;2054264;28;19914;-89
2023/03/28 00:41:20;;;;;;;;;;;;;;;;;;2054501;28;20479;-89
2023/03/28 00:42:22;;;;;;;2.88;2.60;;;;;;;;;;2054346;28;20480;-88
2023/03/28 00:43:38;;;;;;;2.97;2.67;;;;;;;;;;2054418;28;20131;-88
2023/03/28 00:44:57;;;;;;;3.10;2.38;;;;;;;;;;2062812;28;20271;-88
2023/03/28 00:45:57;;;;;;;3.42;2.67;;;;;;;;;;2053994;28;20046;-89
2023/03/28 00:46:57;;;;;;;;;;;;;;;;;;2054617;28;20030;-88
2023/03/28 00:48:08;;;;;;;2.60;2.40;;;;;;;;;;2054075;28;20004;-88
2023/03/28 00:49:11;;;;;;;3.80;2.83;;;;;;;;;;1709883;28;10248258;-87
2023/03/28 00:50:20;;;;;;;2.63;2.35;;;;;;;;;;2062195;28;20038;-87
2023/03/28 00:51:26;;;;;;;2.85;2.60;;;;;;;;;;2062228;28;20504;-87
2023/03/28 00:52:29;;;;;;;2.58;2.38;;;;;;;;;;2065669;28;20034;-87
2023/03/28 00:53:32;;;;;;;2.85;2.55;;;;;;;;;;2054041;28;20039;-87
2023/03/28 00:54:38;;;;;;;2.67;2.33;;;;;;;;;;2053939;28;20113;-87
2023/03/28 00:55:52;;;;;;;2.83;2.55;;;;;;;;;;1698620;28;10436178;-87
2023/03/28 00:56:56;;;;;;;2.80;2.55;;;;;;;;;;2053971;28;20030;-87
2023/03/28 00:57:57;;;;;;;2.47;2.28;;;;;;;;;;2054742;28;20038;-87
2023/03/28 00:59:01;;;;;;;2.40;2.20;;;;;;;;;;2062873;28;20077;-88
2023/03/28 01:00:05;;;;;;;2.30;2.10;;;;;;;;;;2054235;28;20031;-88
2023/03/28 01:01:07;;;;;;;2.58;2.38;;;;;;;;;;2054849;28;20582;-87
2023/03/28 01:02:07;;;;;;;4.85;2.30;;;;;;;;;;2062946;28;20026;-87
2023/03/28 01:03:12;;;;;;;3.15;2.40;;;;;;;;;;2054315;28;20037;-88
2023/03/28 01:04:19;;;;;;;2.08;1.95;;;;;;;;;;2046944;28;20059;-88
2023/03/28 01:05:25;;;;;;;2.30;2.08;;;;;;;;;;2055273;28;20097;-88
2023/03/28 01:06:25;;;;;;;2.50;2.30;;;;;;;;;;2064247;28;20502;-88
2023/03/28 01:07:34;;;;;;;2.33;2.13;;;;;;;;;;2067833;28;20057;-86
2023/03/28 01:08:37;;;;;;;2.10;2.00;;;;;;;;;;2058330;28;20022;-87
2023/03/28 01:09:39;;;;;;;2.78;2.58;;;;;;;;;;2054536;28;20113;-89
2023/03/28 01:10:40;;;;;;;2.70;2.50;;;;;;;;;;2054805;28;20114;-88
2023/03/28 01:11:42;;;;;;;2.90;2.60;;;;;;;;;;2046341;28;20117;-88
2023/03/28 01:12:42;;;;;;;2.60;2.40;;;;;;;;;;2054483;28;20351;-89
2023/03/28 01:13:44;;;;;;;;;;;;;;;;;;2054811;28;20038;-88
2023/03/28 01:14:46;;;;;;;2.47;2.10;;;;;;;;;;2054342;28;20311;-88
2023/03/28 01:15:50;;;;;;;2.72;2.53;;;;;;;;;;2054302;28;20030;-86
2023/03/28 01:16:51;;;;;;;2.45;2.25;;;;;;;;;;2054754;28;20022;-87
2023/03/28 01:17:52;;;;;;;2.63;2.03;;;;;;;;;;2063105;28;20105;-91
2023/03/28 01:18:53;;;;;;;2.20;2.00;;;;;;;;;;2062192;28;20018;-88
2023/03/28 01:20:03;;;;;;;;;;;;;;;;;;2054885;28;20461;-87
2023/03/28 01:21:21;;;;;;;2.53;2.33;;;;;;;;;;2047605;28;19950;-88
2023/03/28 01:22:30;;;;;;;2.20;1.98;;;;;;;;;;2054290;28;20033;-87
2023/03/28 01:23:52;;;;;;;1.83;1.73;;;;;;;;;;2055420;28;20113;-90
2023/03/28 01:25:15;;;;;;;2.00;1.90;;;;;;;;;;2054487;28;20150;-89
2023/03/28 01:26:32;;;;;;;2.05;1.70;;;;;;;;;;2036966;29;20126;-89
2023/03/28 01:27:42;;;;;;;1.75;1.65;;;;;;;;;;2055766;28;20054;-88
2023/03/28 01:29:20;;;;;;;2.17;1.98;;;;;;;;;;2053784;28;20410;-89
2023/03/28 01:30:28;;;;;;;2.03;1.83;;;;;;;;;;2058937;28;20291;-87
2023/03/28 01:31:47;;;;;;;1.90;1.80;;;;;;;;;;2062513;28;20081;-87
2023/03/28 01:33:01;;;;;;;1.88;1.77;;;;;;;;;;2062615;28;20019;-87
2023/03/28 01:34:04;;;;;;;1.92;1.73;;;;;;;;;;2062380;28;20635;-88
2023/03/28 01:35:25;;;;;;;2.00;1.80;;;;;;;;;;2061681;28;20123;-88
2023/03/28 01:36:46;;;;;;;1.90;1.80;;;;;;;;;;2062069;28;20533;-89
2023/03/28 01:38:28;;;;;;;1.63;1.52;;;;;;;;;;2053889;28;20026;-88
2023/03/28 01:39:40;;;;;;;1.80;1.70;;;;;;;;;;2059192;28;20100;-88
2023/03/28 01:40:55;;;;;;;1.63;1.52;;;;;;;;;;2061830;28;20378;-87
2023/03/28 01:42:01;;;;;;;2.22;1.75;;;;;;;;;;2062695;28;20144;-87
2023/03/28 01:43:11;;;;;;;1.90;1.80;;;;;;;;;;2053837;28;20069;-87
2023/03/28 01:44:27;;;;;;;1.70;1.60;;;;;;;;;;2053805;28;20457;-88
2023/03/28 01:45:59;;;;;;;2.20;2.10;;;;;;;;;;2055840;28;20023;-89
2023/03/28 01:47:19;;;;;;;1.85;1.75;;;;;;;;;;2059396;28;20033;-89
2023/03/28 01:49:33;;;;;;;1.88;1.77;;;;;;;;;;2051925;23;20043;-88
2023/03/28 01:50:51;;;;;;;2.28;2.08;;;;;;;;;;2046527;29;20054;-87
2023/03/28 01:52:08;;;;;;;2.00;1.80;;;;;;;;;;2046529;29;20022;-88
2023/03/28 01:53:20;;;;;;;2.08;1.83;;;;;;;;;;2045818;29;20038;-89
2023/03/28 01:54:46;;;;;;;1.98;1.88;;;;;;;;;;2045771;29;20369;-87
2023/03/28 01:56:01;;;;;;;2.67;1.88;;;;;;;;;;2053581;28;20557;-87
2023/03/28 01:57:13;;;;;;;1.90;1.80;;;;;;;;;;2052272;28;20050;-87
2023/03/28 01:58:19;;;;;;;2.45;2.25;;;;;;;;;;2046398;29;20171;-87
2023/03/28 01:59:33;;;;;;;2.13;1.95;;;;;;;;;;2046640;29;20039;-89
2023/03/28 02:00:42;;;;;;;2.17;1.98;;;;;;;;;;2048649;29;20516;-88
2023/03/28 02:01:54;;;;;;;2.38;2.00;;;;;;;;;;2059040;28;20034;-89
2023/03/28 02:03:06;;;;;;;2.33;2.10;;;;;;;;;;2052855;28;20037;-88
2023/03/28 02:04:12;;;;;;;2.42;2.00;;;;;;;;;;2046142;29;20502;-88
2023/03/28 02:05:14;;;;;;;2.33;2.17;;;;;;;;;;2038245;29;20525;-88
2023/03/28 02:06:16;;;;;;;2.45;2.10;;;;;;;;;;2046334;28;20045;-87
2023/03/28 02:07:20;;;;;;;1.70;1.60;;;;;;;;;;2054135;28;20030;-91
2023/03/28 02:08:24;;;;;;;2.53;1.90;;;;;;;;;;2046834;29;20034;-88
2023/03/28 02:09:26;;;;;;;2.28;2.05;;;;;;;;;;2038096;29;20493;-88
2023/03/28 02:10:31;;;;;;;2.28;2.08;;;;;;;;;;2038957;29;20106;-88
2023/03/28 02:11:33;;;;;;;2.15;1.90;;;;;;;;;;2056899;28;20080;-88
2023/03/28 02:12:47;;;;;;;2.35;2.15;;;;;;;;;;2056588;28;20024;-87
2023/03/28 02:13:58;;;;;;;2.50;2.30;;;;;;;;;;2052871;29;20035;-90
2023/03/28 02:15:03;;;;;;;3.30;2.20;;;;;;;;;;2048859;29;20035;-87
2023/03/28 02:16:06;;;;;;;2.45;2.25;;;;;;;;;;2047348;29;20122;-87
2023/03/28 02:17:14;;;;;;;3.38;2.40;;;;;;;;;;2046190;29;20031;-87
2023/03/28 02:18:22;;;;;;;3.92;2.72;;;;;;;;;;2045849;29;20046;-88
2023/03/28 02:19:23;;;;;;;2.88;2.28;;;;;;;;;;2046057;29;20083;-88
2023/03/28 02:20:29;;;;;;;4.13;2.47;;;;;;;;;;2045923;29;20160;-88
2023/03/28 02:22:16;;;;;;;2.22;2.03;;;;;;;;;;2045971;29;20027;-88
2023/03/28 02:23:22;;;;;;;2.53;2.28;;;;;;;;;;2021663;29;20405;-89
2023/03/28 02:24:24;;;;;;;3.33;2.50;;;;;;;;;;2021717;29;20041;-88
2023/03/28 02:25:25;;;;;;;2.60;2.40;;;;;;;;;;2024965;29;20048;-89
2023/03/28 02:26:26;;;;;;;2.50;2.30;;;;;;;;;;2046126;28;20035;-90
2023/03/28 02:27:27;;;;;;;2.35;2.15;;;;;;;;;;1698122;29;10192202;-89
2023/03/28 02:28:30;;;;;;;2.42;2.22;;;;;;;;;;2038984;29;20055;-89
2023/03/28 02:29:30;;;;;;;2.08;1.92;;;;;;;;;;2041297;29;20036;-88
2023/03/28 02:30:31;;;;;;;;;;;;;;;;;;2048691;29;20051;-89
2023/03/28 02:31:32;;;;;;;3.17;2.50;;;;;;;;;;2056875;28;19978;-90
2023/03/28 02:32:35;;;;;;;2.60;2.33;;;;;;;;;;1696868;29;10001171;-89
2023/03/28 02:33:42;;;;;;;2.10;1.90;;;;;;;;;;2040449;29;20038;-90
2023/03/28 02:34:44;;;;;;;2.40;2.20;;;;;;;;;;2047972;29;20049;-89
2023/03/28 02:36:15;;;;;;;2.42;2.20;;;;;;;;;;2046691;29;20062;-89
2023/03/28 02:37:44;;;;;;;2.20;2.03;;;;;;;;;;1696452;28;10250082;-88
2023/03/28 02:39:15;;;;;;;2.08;1.98;;;;;;;;;;2047277;29;20042;-87
2023/03/28 02:40:31;;;;;;;2.25;2.00;;;;;;;;;;2045843;29;20162;-87
2023/03/28 02:41:53;;;;;;;2.38;2.17;;;;;;;;;;2046315;29;20035;-89
2023/03/28 02:43:12;;;;;;;2.22;2.13;;;;;;;;;;2046370;29;20119;-89
2023/03/28 02:44:27;;;;;;;2.13;1.92;;;;;;;;;;2037715;29;20389;-89
2023/03/28 02:45:40;;;;;;;1.98;1.42;;;;;;;;;;2039773;29;20109;-89
2023/03/28 02:47:01;;;;;;;3.65;2.45;;;;;;;;;;2045702;29;20125;-89
2023/03/28 02:48:31;;;;;;;2.25;2.03;;;;;;;;;;2046090;29;20034;-88
2023/03/28 02:49:54;;;;;;;2.30;2.10;;;;;;;;;;2040644;29;20051;-88
2023/03/28 02:51:21;;;;;;;2.55;2.33;;;;;;;;;;2046704;29;20482;-88
2023/03/28 02:52:38;;;;;;;2.97;2.40;;;;;;;;;;2046630;28;20031;-90
2023/03/28 02:54:03;;;;;;;2.38;2.10;;;;;;;;;;2041492;29;20121;-88
2023/03/28 02:55:11;;;;;;;2.13;1.92;;;;;;;;;;2047078;29;20082;-89
2023/03/28 02:56:44;;;;;;;2.05;1.90;;;;;;;;;;2045893;29;20131;-88
2023/03/28 02:57:49;;;;;;;1.80;1.70;;;;;;;;;;2046439;29;20435;-87
2023/03/28 02:58:53;;;;;;;2.22;2.00;;;;;;;;;;2046527;29;20417;-88
2023/03/28 03:00:20;;;;;;;1.83;1.73;;;;;;;;;;2038053;29;20028;-88
2023/03/28 03:01:24;;;;;;;2.38;2.22;;;;;;;;;;2038832;29;20061;-88
2023/03/28 03:02:24;;;;;;;2.03;1.92;;;;;;;;;;2045973;29;20137;-88
2023/03/28 03:03:24;;;;;;;;;;;;;;;;;;2046295;29;20518;-86
2023/03/28 03:04:25;;;;;;;1.97;1.87;;;;;;;;;;2037742;29;19914;-87
2023/03/28 03:05:25;;;;;;;2.00;1.90;;;;;;;;;;2037699;29;20024;-88
2023/03/28 03:06:26;;;;;;;5.18;2.15;;;;;;;;;;2045502;29;20031;-87
2023/03/28 03:07:27;;;;;;;2.08;1.98;;;;;;;;;;1695894;28;10259595;-88
2023/03/28 03:08:28;;;;;;;2.00;1.90;;;;;;;;;;2037730;29;20144;-88
2023/03/28 03:09:29;;;;;;;2.47;2.28;;;;;;;;;;2037737;29;20027;-88
2023/03/28 03:10:29;;;;;;;;;;;;;;;;;;2046945;29;20410;-88
2023/03/28 03:11:30;;;;;;;2.93;2.10;;;;;;;;;;2045794;29;20185;-90
2023/03/28 03:12:31;;;;;;;2.13;2.03;;;;;;;;;;2045562;29;20043;-88
2023/03/28 03:13:33;;;;;;;;;;;;;;;;;;2046683;29;20114;-89
2023/03/28 03:14:42;;;;;;;2.00;1.90;;;;;;;;;;2045298;29;19993;-89
2023/03/28 03:15:45;;;;;;;1.98;1.88;;;;;;;;;;2048431;29;20031;-89
2023/03/28 03:16:45;;;;;;;2.28;2.08;;;;;;;;;;2046057;29;20080;-90
2023/03/28 03:17:46;;;;;;;;;;;;;;;;;;2045890;29;20059;-88
2023/03/28 03:18:46;;;;;;;2.00;1.90;;;;;;;;;;2045639;29;20072;-90
2023/03/28 03:19:47;;;;;;;1.98;1.88;;;;;;;;;;2037365;29;20487;-89
2023/03/28 03:20:49;;;;;;;;;;;;;;;;;;2038048;29;20467;-89
2023/03/28 03:21:49;;;;;;;;;;;;;;;;;;2038014;29;20391;-86
2023/03/28 03:22:49;;;;;;;2.13;1.80;;;;;;;;;;2037623;29;19937;-89
2023/03/28 03:23:51;;;;;;;3.35;2.20;;;;;;;;;;2037647;29;20515;-89
2023/03/28 03:24:51;;;;;;;1.90;1.80;;;;;;;;;;2037993;29;20024;-89
2023/03/28 03:25:51;;;;;;;;;;;;;;;;;;2030278;29;20378;-89
2023/03/28 03:26:52;;;;;;;2.10;2.00;;;;;;;;;;2045824;29;19922;-89
2023/03/28 03:27:52;;;;;;;;;;;;;;;;;;2054915;28;20109;-89
2023/03/28 03:28:54;;;;;;;2.60;1.97;;;;;;;;;;2045766;29;19969;-87
2023/03/28 03:29:54;;;;;;;2.38;2.22;;;;;;;;;;2045675;29;20051;-88
2023/03/28 03:30:54;;;;;;;;;;;;;;;;;;2038315;29;20031;-88
2023/03/28 03:31:55;;;;;;;2.10;1.95;;;;;;;;;;2037868;29;19910;-89
2023/03/28 03:32:55;;;;;;;;;;;;;;;;;;2038055;29;20027;-88
2023/03/28 03:33:55;;;;;;;2.30;2.10;;;;;;;;;;2037822;29;20598;-89
2023/03/28 03:34:56;;;;;;;;;;;;;;;;;;2048181;29;20035;-89
2023/03/28 03:35:56;;;;;;;2.50;2.30;;;;;;;;;;2051045;29;20374;-88
2023/03/28 03:36:56;;;;;;;2.15;2.05;;;;;;;;;;2047723;29;20038;-88
2023/03/28 03:37:57;;;;;;;;;;;;;;;;;;2039614;29;20087;-88
2023/03/28 03:38:57;;;;;;;2.00;1.90;;;;;;;;;;2038969;29;20021;-87
2023/03/28 03:39:57;;;;;;;;;;;;;;;;;;2048679;29;20019;-88
2023/03/28 03:40:58;;;;;;;4.70;2.40;;;;;;;;;;2054764;28;20409;-87
2023/03/28 03:41:58;;;;;;;;;;;;;;;;;;2055212;28;20022;-87
2023/03/28 03:42:59;;;;;;;1.90;1.80;;;;;;;;;;2038927;29;20244;-87
2023/03/28 03:43:59;;;;;;;;;;;;;;;;;;2039216;29;20561;-87
2023/03/28 03:45:00;;;;;;;2.40;2.20;;;;;;;;;;2046649;29;19911;-88
2023/03/28 03:46:01;;;;;;;;;;;;;;;;;;2047415;29;20038;-89
2023/03/28 03:47:02;;;;;;;2.60;2.40;;;;;;;;;;2050714;28;19925;-88
2023/03/28 03:48:03;;;;;;;2.53;2.33;;;;;;;;;;2058419;28;20051;-87
2023/03/28 03:49:03;;;;;;;;;;;;;;;;;;2055651;28;20068;-90
2023/03/28 03:50:04;;;;;;;3.03;2.40;;;;;;;;;;2049558;28;19965;-88
2023/03/28 03:51:05;;;;;;;2.83;2.63;;;;;;;;;;2047313;28;20094;-88
2023/03/28 03:52:05;;;;;;;;;;;;;;;;;;2048006;29;20035;-88
2023/03/28 03:53:05;;;;;;;3.80;2.67;;;;;;;;;;2047702;29;19917;-88
2023/03/28 03:54:06;;;;;;;;;;;;;;;;;;2048075;29;20051;-88
2023/03/28 03:55:06;;;;;;;2.40;2.05;;;;;;;;;;2047801;29;19914;-88
2023/03/28 03:56:07;;;;;;;4.03;2.83;;;;;;;;;;1705901;28;10174448;-88
2023/03/28 03:57:08;;;;;;;;;;;;;;;;;;2055187;28;20465;-88
2023/03/28 03:58:08;;;;;;;2.20;2.10;;;;;;;;;;2046973;29;19954;-88
2023/03/28 03:59:08;;;;;;;;;;;;;;;;;;2048032;29;20023;-88
2023/03/28 04:00:12;;;;;;;3.28;2.80;;;;;;;;;;2047544;29;19910;-88
2023/03/28 04:01:14;;;;;;;3.10;2.90;;;;;;;;;;2038973;29;20494;-89
2023/03/28 04:02:15;;;;;;;4.78;3.28;;;;;;;;;;2039071;29;20116;-88
2023/03/28 04:03:15;;;;;;;;;;;;;;;;;;2047612;29;20114;-87
2023/03/28 04:04:16;;;;;;;2.80;2.60;;;;;;;;;;2038642;29;19911;-87
2023/03/28 04:05:16;;;;;;;;;;;;;;;;;;2039460;29;20494;-86
2023/03/28 04:06:18;;;;;;;2.73;2.30;;;;;;;;;;2054744;28;19910;-84
2023/03/28 04:07:18;;;;;;;3.28;3.05;;;;;;;;;;2054813;28;20030;-88
2023/03/28 04:08:19;;;;;;;;;;;;;;;;;;2047973;29;20039;-88
2023/03/28 04:09:23;;;;;;;2.93;2.73;;;;;;;;;;2054855;28;19940;-88
2023/03/28 04:10:24;;;;;;;2.97;2.78;;;;;;;;;;2054146;28;20465;-89
2023/03/28 04:11:24;;;;;;;;;;;;;;;;;;2046907;29;20024;-88
2023/03/28 04:12:25;;;;;;;3.22;2.95;;;;;;;;;;2054494;28;19997;-88
2023/03/28 04:13:25;;;;;;;3.25;3.03;;;;;;;;;;2054522;28;20048;-88
2023/03/28 04:14:25;;;;;;;;;;;;;;;;;;2047218;28;20580;-88
2023/03/28 04:15:26;;;;;;;2.95;2.67;;;;;;;;;;2046800;29;19915;-86
2023/03/28 04:16:28;;;;;;;3.10;2.80;;;;;;;;;;2046883;29;20083;-87
2023/03/28 04:17:33;;;;;;;3.70;3.40;;;;;;;;;;2046740;29;20027;-88
2023/03/28 04:18:34;;;;;;;4.38;3.97;;;;;;;;;;2040062;29;20051;-88
2023/03/28 04:19:39;;;;;;;;;;;;;;;;;;2043530;29;20079;-88
2023/03/28 04:20:40;;;;;;;4.55;3.60;;;;;;;;;;2049948;29;19910;-89
2023/03/28 04:21:41;;;;;;;5.07;3.53;;;;;;;;;;2048230;29;20035;-88
2023/03/28 04:22:42;;;;;;;4.18;3.78;;;;;;;;;;2047595;29;20035;-87
2023/03/28 04:23:42;;;;;;;;;;;;;;;;;;2039303;29;20118;-87
2023/03/28 04:24:43;;;;;;;3.53;3.20;;;;;;;;;;2038943;29;19911;-87
2023/03/28 04:25:44;;;;;;;3.83;3.20;;;;;;;;;;2046763;29;20217;-87
2023/03/28 04:26:44;;;;;;;;;;;;;;;;;;2039261;29;20035;-87
2023/03/28 04:27:47;;;;;;;3.15;2.85;;;;;;;;;;2038662;29;19910;-87
2023/03/28 04:28:48;;;;;;;4.70;3.88;;;;;;;;;;2046667;29;20026;-87
2023/03/28 04:29:52;;;;;;;;;;;;;;;;;;2039132;29;20023;-88
2023/03/28 04:30:58;;;;;;;3.92;2.95;;;;;;;;;;2031318;29;20239;-87
2023/03/28 04:31:59;;;;;;;4.45;4.05;;;;;;;;;;2039484;29;20378;-88
2023/03/28 04:33:00;;;;;;;;;;;;;;;;;;2047099;29;20090;-89
2023/03/28 04:34:02;;;;;;;4.45;4.00;;;;;;;;;;2046564;29;20085;-87
2023/03/28 04:35:03;;;;;;;4.50;4.10;;;;;;;;;;2046750;29;20086;-89
2023/03/28 04:36:04;;;;;;;;;;;;;;;;;;2049063;28;20046;-89
2023/03/28 04:37:05;;;;;;;4.63;3.63;;;;;;;;;;2049932;29;19944;-88
2023/03/28 04:38:06;;;;;;;;;;;;;;;;;;2047360;29;20027;-89
2023/03/28 04:39:07;;;;;;;2.85;2.65;;;;;;;;;;2046094;29;19937;-88
2023/03/28 04:40:11;;;;;;;3.97;3.55;;;;;;;;;;2050863;29;20030;-95
2023/03/28 04:41:15;;;;;;;4.63;3.90;;;;;;;;;;2048665;29;20038;-88
2023/03/28 04:42:15;;;;;;;4.60;4.20;;;;;;;;;;2039917;29;20035;-87
2023/03/28 04:43:16;;;;;;;;;;;;;;;;;;2047411;29;20509;-87
2023/03/28 04:44:16;;;;;;;3.83;3.27;;;;;;;;;;2047213;29;19910;-88
2023/03/28 04:45:17;;;;;;;;;;;;;;;;;;2048784;28;20098;-86
2023/03/28 04:46:18;;;;;;;6.07;3.60;;;;;;;;;;2065099;28;19921;-87
2023/03/28 04:47:19;;;;;;;;;;;;;;;;;;2057595;28;20421;-86
2023/03/28 04:48:20;;;;;;;4.13;3.00;;;;;;;;;;2048238;29;19923;-87
2023/03/28 04:49:20;;;;;;;;;;;;;;;;;;2041241;29;20047;-87
2023/03/28 04:50:22;;;;;;;3.33;3.03;;;;;;;;;;2050291;29;20392;-88
2023/03/28 04:51:23;;;;;;;4.47;4.07;;;;;;;;;;2048049;29;20201;-89
2023/03/28 04:52:24;;;;;;;4.35;3.95;;;;;;;;;;2038133;29;20066;-88
2023/03/28 04:53:24;;;;;;;;;;;;;;;;;;2046485;29;20058;-89
2023/03/28 04:54:25;;;;;;;3.10;2.80;;;;;;;;;;2054244;28;20311;-88
2023/03/28 04:55:27;;;;;;;5.10;4.53;;;;;;;;;;2046823;29;20542;-88
2023/03/28 04:56:28;;;;;;;4.25;3.95;;;;;;;;;;2046784;29;20078;-87
2023/03/28 04:57:28;;;;;;;;;;;;;;;;;;2047427;29;20451;-88
2023/03/28 04:58:29;;;;;;;3.17;2.87;;;;;;;;;;2054097;28;19985;-87
2023/03/28 04:59:29;;;;;;;;;;;;;;;;;;2046369;29;20490;-89
2023/03/28 05:00:29;;;;;;;3.47;3.07;;;;;;;;;;2038574;29;19997;-88
2023/03/28 05:01:30;;;;;;;4.50;4.10;;;;;;;;;;2046775;29;20354;-88
2023/03/28 05:02:30;;;;;;;4.07;3.70;;;;;;;;;;2046120;29;20083;-87
2023/03/28 05:03:30;;;;;;;;;;;;;;;;;;2046523;29;20035;-88
2023/03/28 05:04:31;;;;;;;3.92;3.60;;;;;;;;;;2038288;29;19924;-88
2023/03/28 05:05:31;;;;;;;;;;;;;;;;;;2044509;29;20066;-87
2023/03/28 05:06:31;;;;;;;3.35;3.05;;;;;;;;;;2057638;28;19962;-88
2023/03/28 05:07:32;;;;;;;4.72;4.43;;;;;;;;;;2057134;29;20035;-88
2023/03/28 05:08:32;;;;;;;;;;;;;;;;;;2053926;28;20429;-88
2023/03/28 05:09:33;;;;;;;3.37;3.07;;;;;;;;;;2049083;29;20331;-88
2023/03/28 05:10:33;;;;;;;4.05;3.75;;;;;;;;;;2048232;28;20023;-85
2023/03/28 05:11:33;;;;;;;4.13;3.65;;;;;;;;;;2047379;29;20407;-87
2023/03/28 05:12:34;;;;;;;;;;;;;;;;;;2047676;29;20159;-87
2023/03/28 05:13:35;;;;;;;2.80;2.50;;;;;;;;;;2054544;28;20321;-87
2023/03/28 05:14:35;;;;;;;4.68;4.28;;;;;;;;;;2054018;28;20031;-88
2023/03/28 05:15:36;;;;;;;;;;;;;;;;;;2038969;29;20494;-87
2023/03/28 05:16:36;;;;;;;4.23;3.70;;;;;;;;;;2038843;29;19915;-87
2023/03/28 05:17:37;;;;;;;4.00;3.70;;;;;;;;;;2046961;29;20027;-87
2023/03/28 05:18:37;;;;;;;;;;;;;;;;;;2047199;29;20059;-87
2023/03/28 05:19:37;;;;;;;4.60;4.13;;;;;;;;;;2046742;29;20004;-89
2023/03/28 05:20:38;;;;;;;4.72;4.32;;;;;;;;;;2046502;29;20037;-88
2023/03/28 05:21:39;;;;;;;;;;;;;;;;;;2047641;29;20102;-86
2023/03/28 05:22:40;;;;;;;6.45;4.03;;;;;;;;;;2046847;29;20361;-88
2023/03/28 05:23:40;;;;;;;;;;;;;;;;;;2047074;29;20043;-87
2023/03/28 05:24:40;;;;;;;3.80;3.50;;;;;;;;;;2046761;29;19918;-87
2023/03/28 05:25:41;;;;;;;3.50;2.97;;;;;;;;;;2046739;29;20054;-86
2023/03/28 05:26:42;;;;;;;;;;;;;;;;;;2038190;29;20493;-89
2023/03/28 05:27:42;;;;;;;3.17;2.93;;;;;;;;;;2037960;29;19911;-88
2023/03/28 05:28:42;;;;;;;4.45;3.22;;;;;;;;;;2037746;29;20024;-88
2023/03/28 05:29:43;;;;;;;3.90;3.60;;;;;;;;;;2038190;29;20710;-87
2023/03/28 05:30:44;;;;;;;4.78;4.13;;;;;;;;;;2045686;29;20114;-86
2023/03/28 05:31:45;;;;;;;4.90;4.32;;;;;;;;;;2037936;29;20032;-87
2023/03/28 05:32:45;;;;;;;;;;;;;;;;;;2038877;29;20593;-87
2023/03/28 05:33:46;;;;;;;4.10;3.70;;;;;;;;;;2041149;29;19911;-87
2023/03/28 05:34:46;;;;;;;;;;;;;;;;;;2043765;29;20027;-86
2023/03/28 05:35:54;;;;;;;3.83;3.53;;;;;;;;;;1971959;28;10002503;-88
2023/03/28 05:36:56;;;;;;;;;;;;;;;;;;2046669;29;20243;-88
2023/03/28 05:37:56;;;;;;;3.53;3.22;;;;;;;;;;2054411;28;19910;-87
2023/03/28 05:38:56;;;;;;;;;;;;;;;;;;2054803;28;20500;-87
2023/03/28 05:39:57;;;;;;;2.73;2.57;;;;;;;;;;2047342;28;20013;-86
2023/03/28 05:40:57;;;;;;;;;;;;;;;;;;2047254;29;20195;-86
2023/03/28 05:41:59;;;;;;;3.10;2.90;;;;;;;;;;2053963;28;19977;-89
2023/03/28 05:42:59;;;;;;;3.60;3.20;;;;;;;;;;2054002;28;20031;-87
2023/03/28 05:44:00;;;;;;;;;;;;;;;;;;2046487;29;20122;-88
2023/03/28 05:45:01;;;;;;;3.63;3.30;;;;;;;;;;2046106;29;19914;-87
2023/03/28 05:46:01;;;;;;;3.78;3.08;;;;;;;;;;2038104;29;20150;-86
2023/03/28 05:47:01;;;;;;;;;;;;;;;;;;2039750;29;20102;-86
2023/03/28 05:48:02;;;;;;;5.10;2.90;;;;;;;;;;2053666;28;20028;-86
2023/03/28 05:49:08;;;;;;;;;;;;;;;;;;2046300;28;20057;-86
2023/03/28 05:50:11;;;;;;;4.20;3.35;;;;;;;;;;2039437;29;19911;-86
2023/03/28 05:51:11;;;;;;;3.03;2.78;;;;;;;;;;2046348;29;20039;-88
2023/03/28 05:52:12;;;;;;;;;;;;;;;;;;2046353;29;20033;-87
2023/03/28 05:53:12;;;;;;;3.90;3.50;;;;;;;;;;1702550;28;10055150;-85
2023/03/28 05:54:17;;;;;;;4.78;3.40;;;;;;;;;;2049308;29;20034;-88
2023/03/28 05:55:18;;;;;;;3.17;2.90;;;;;;;;;;2046508;29;20477;-88
2023/03/28 05:56:18;;;;;;;;;;;;;;;;;;2046442;28;20031;-89
2023/03/28 05:57:18;;;;;;;3.13;2.80;;;;;;;;;;2046152;29;19910;-87
2023/03/28 05:58:19;;;;;;;;;;;;;;;;;;2054006;28;20442;-88
2023/03/28 05:59:23;;;;;;;2.72;2.53;;;;;;;;;;2053799;28;19953;-88
2023/03/28 06:00:24;;;;;;;3.05;2.50;;;;;;;;;;2046322;29;20118;-87
2023/03/28 06:01:27;;;;;;;;;;;;;;;;;;2046824;29;20043;-87
2023/03/28 06:02:28;;;;;;;3.78;2.78;;;;;;;;;;2046525;29;19910;-88
2023/03/28 06:03:30;;;;;;;;;;;;;;;;;;2054043;28;20117;-89
2023/03/28 06:04:31;;;;;;;3.17;2.88;;;;;;;;;;2053686;28;19910;-88
2023/03/28 06:05:31;;;;;;;;;;;;;;;;;;2046953;29;20038;-88
2023/03/28 06:06:33;;;;;;;3.23;2.63;;;;;;;;;;2046626;29;20273;-89
2023/03/28 06:07:33;;;;;;;2.90;2.70;;;;;;;;;;2053425;28;20270;-87
2023/03/28 06:08:40;;;;;;;;;;;;;;;;;;2054342;28;20489;-88
2023/03/28 06:09:45;;;;;;;3.92;2.88;;;;;;;;;;2040917;29;19911;-89
2023/03/28 06:10:45;;;;;;;3.72;2.75;;;;;;;;;;2047936;28;20023;-87
2023/03/28 06:11:46;;;;;;;;;;;;;;;;;;2054653;28;20030;-88
2023/03/28 06:12:46;;;;;;;4.43;2.37;;;;;;;;;;2045822;28;19994;-88
2023/03/28 06:13:46;;;;;;;4.15;2.75;;;;;;;;;;2046332;29;20383;-88
2023/03/28 06:14:48;;;;;;;4.45;3.13;;;;;;;;;;2046242;29;20066;-88
2023/03/28 06:15:49;;;;;;;;;;;;;;;;;;2046774;29;20033;-88
2023/03/28 06:16:49;;;;;;;3.30;2.70;;;;;;;;;;2046440;29;20407;-88
2023/03/28 06:17:49;;;;;;;;;;;;;;;;;;2046776;29;20058;-86
2023/03/28 06:18:51;;;;;;;3.90;2.42;;;;;;;;;;2045554;29;19981;-88
2023/03/28 06:19:51;;;;;;;4.90;2.70;;;;;;;;;;2045896;29;20109;-87
2023/03/28 06:20:54;;;;;;;;;;;;;;;;;;2046065;29;20024;-87
2023/03/28 06:21:54;;;;;;;2.70;2.50;;;;;;;;;;2046250;29;19911;-87
2023/03/28 06:22:55;;;;;;;;;;;;;;;;;;2038193;29;20582;-86
2023/03/28 06:23:55;;;;;;;4.97;3.07;;;;;;;;;;2037594;29;19966;-87
2023/03/28 06:24:55;;;;;;;;;;;;;;;;;;2046896;29;20027;-88
2023/03/28 06:25:57;;;;;;;4.00;2.70;;;;;;;;;;2046329;29;20653;-86
2023/03/28 06:26:57;;;;;;;3.97;2.58;;;;;;;;;;2048549;29;20019;-87
2023/03/28 06:27:58;;;;;;;;;;;;;;;;;;2052454;29;20094;-87
2023/03/28 06:28:58;;;;;;;5.30;2.73;;;;;;;;;;2054286;28;20278;-87
2023/03/28 06:29:59;;;;;;;3.67;2.72;;;;;;;;;;2054011;28;20023;-86
2023/03/28 06:30:59;;;;;;;3.22;2.92;;;;;;;;;;2046686;28;20057;-89
2023/03/28 06:31:59;;;;;;;;;;;;;;;;;;2046427;29;20019;-88
2023/03/28 06:33:00;;;;;;;3.03;2.70;;;;;;;;;;2046124;29;19917;-87
2023/03/28 06:34:00;;;;;;;3.17;2.88;;;;;;;;;;2045806;29;20031;-88
2023/03/28 06:35:00;;;;;;;;;;;;;;;;;;2046298;29;20019;-88
2023/03/28 06:36:01;;;;;;;2.25;2.15;;;;;;;;;;2045625;29;19919;-88
2023/03/28 06:37:01;;;;;;;;;;;;;;;;;;2038825;29;20353;-88